createdAt,value
2023-06-21T00:00:01.768Z,8.33
2023-06-21T00:02:29.607Z,7.70
2023-06-21T00:06:11.993Z,7.03
2023-06-21T00:08:39.726Z,7.20
2023-06-21T00:11:06.617Z,6.57
2023-06-21T00:13:33.527Z,6.90
2023-06-21T00:16:00.458Z,7.10
2023-06-21T00:18:27.454Z,7.07
2023-06-21T00:20:54.355Z,6.97
2023-06-21T00:23:21.217Z,6.63
2023-06-21T00:25:48.111Z,7.37
2023-06-21T00:28:15.074Z,7.30
2023-06-21T00:30:41.979Z,7.10
2023-06-21T00:33:08.931Z,6.80
2023-06-21T00:35:35.850Z,7.00
2023-06-21T00:38:02.714Z,6.90
2023-06-21T00:40:35.127Z,6.40
2023-06-21T00:43:05.004Z,7.47
2023-06-21T00:45:40.313Z,7.60
2023-06-21T00:48:08.428Z,6.97
2023-06-21T00:50:35.599Z,6.80
2023-06-21T00:53:02.570Z,6.73
2023-06-21T00:55:29.541Z,6.00
2023-06-21T00:57:58.375Z,6.17
2023-06-21T01:00:26.802Z,6.63
2023-06-21T01:03:00.261Z,6.00
2023-06-21T01:05:35.635Z,6.10
2023-06-21T01:08:36.172Z,6.37
2023-06-21T01:11:03.403Z,6.00
2023-06-21T01:13:46.235Z,5.53
2023-06-21T01:16:16.510Z,5.93
2023-06-21T01:18:47.660Z,5.63
2023-06-21T01:21:19.817Z,6.17
2023-06-21T01:24:14.952Z,6.03
2023-06-21T01:27:17.677Z,6.20
2023-06-21T01:29:48.932Z,5.93
2023-06-21T01:32:18.338Z,6.07
2023-06-21T01:34:46.286Z,6.30
2023-06-21T01:37:13.187Z,5.70
2023-06-21T01:39:40.153Z,5.50
2023-06-21T01:42:07.582Z,6.20
2023-06-21T01:44:34.981Z,5.67
2023-06-21T01:47:02.632Z,5.97
2023-06-21T01:49:31.693Z,6.17
2023-06-21T01:51:59.905Z,6.10
2023-06-21T01:54:28.359Z,6.20
2023-06-21T01:57:00.828Z,5.83
2023-06-21T01:59:30.154Z,5.90
2023-06-21T02:02:02.404Z,6.03
2023-06-21T02:04:31.410Z,5.50
2023-06-21T02:06:59.819Z,6.10
2023-06-21T02:09:27.301Z,6.07
2023-06-21T02:11:54.525Z,5.63
2023-06-21T02:14:21.855Z,5.90
2023-06-21T02:16:49.434Z,6.60
2023-06-21T02:19:16.373Z,5.70
2023-06-21T02:21:43.303Z,6.17
2023-06-21T02:24:10.248Z,6.17
2023-06-21T02:26:37.189Z,6.37
2023-06-21T02:29:04.065Z,6.03
2023-06-21T02:31:34.095Z,5.43
2023-06-21T02:34:01.318Z,5.80
2023-06-21T02:36:28.382Z,6.17
2023-06-21T02:38:56.608Z,6.20
2023-06-21T02:41:23.639Z,5.87
2023-06-21T02:43:50.814Z,5.93
2023-06-21T02:46:18.921Z,6.03
2023-06-21T02:48:45.832Z,6.37
2023-06-21T02:51:12.707Z,5.50
2023-06-21T02:53:39.635Z,6.57
2023-06-21T02:56:07.081Z,6.00
2023-06-21T02:58:34.248Z,6.70
2023-06-21T03:01:01.157Z,6.50
2023-06-21T03:03:28.960Z,6.47
2023-06-21T03:05:56.341Z,6.43
2023-06-21T03:08:23.270Z,6.23
2023-06-21T03:10:50.164Z,5.83
2023-06-21T03:13:17.084Z,6.10
2023-06-21T03:15:44.017Z,6.27
2023-06-21T03:18:11.049Z,6.83
2023-06-21T03:20:38.132Z,6.70
2023-06-21T03:23:05.084Z,5.70
2023-06-21T03:25:31.968Z,6.37
2023-06-21T03:28:00.572Z,5.90
2023-06-21T03:32:54.751Z,6.50
2023-06-21T03:35:21.826Z,6.50
2023-06-21T03:37:48.949Z,6.70
2023-06-21T03:40:15.914Z,6.47
2023-06-21T03:42:44.469Z,6.27
2023-06-21T03:45:12.137Z,7.17
2023-06-21T03:47:41.272Z,7.30
2023-06-21T03:50:09.952Z,6.70
2023-06-21T03:52:37.535Z,7.53
2023-06-21T03:55:06.053Z,6.13
2023-06-21T03:57:33.196Z,6.77
2023-06-21T04:00:00.226Z,6.57
2023-06-21T04:02:27.223Z,6.17
2023-06-21T04:04:54.141Z,6.70
2023-06-21T04:07:23.244Z,6.33
2023-06-21T04:09:50.750Z,6.67
2023-06-21T04:12:17.705Z,6.77
2023-06-21T04:14:44.610Z,6.90
2023-06-21T04:17:11.530Z,6.30
2023-06-21T04:19:38.430Z,6.20
2023-06-21T04:22:05.768Z,6.23
2023-06-21T04:24:32.860Z,6.10
2023-06-21T04:27:00.040Z,6.77
2023-06-21T04:29:27.456Z,6.60
2023-06-21T04:31:54.542Z,6.53
2023-06-21T04:34:21.574Z,6.60
2023-06-21T04:36:49.183Z,5.93
2023-06-21T04:39:19.265Z,6.30
2023-06-21T04:41:47.418Z,6.33
2023-06-21T04:44:18.473Z,6.10
2023-06-21T04:46:49.065Z,6.07
2023-06-21T04:49:17.031Z,6.07
2023-06-21T04:51:44.632Z,6.20
2023-06-21T04:54:11.632Z,6.00
2023-06-21T04:56:38.666Z,5.73
2023-06-21T04:59:05.633Z,6.87
2023-06-21T05:01:33.784Z,7.03
2023-06-21T05:04:00.832Z,7.13
2023-06-21T05:06:27.737Z,7.50
2023-06-21T05:08:54.790Z,7.17
2023-06-21T05:11:21.758Z,7.63
2023-06-21T05:13:48.668Z,7.67
2023-06-21T05:16:15.582Z,8.57
2023-06-21T05:18:43.460Z,8.00
2023-06-21T05:21:10.561Z,8.27
2023-06-21T05:23:37.463Z,7.67
2023-06-21T05:26:05.381Z,8.50
2023-06-21T05:28:32.462Z,9.43
2023-06-21T05:30:59.557Z,8.47
2023-06-21T05:33:26.449Z,8.90
2023-06-21T05:35:53.361Z,8.27
2023-06-21T05:38:20.262Z,8.27
2023-06-21T05:40:47.279Z,9.50
2023-06-21T05:43:14.176Z,8.47
2023-06-21T05:45:41.074Z,8.60
2023-06-21T05:48:08.027Z,8.73
2023-06-21T05:50:34.957Z,8.40
2023-06-21T05:53:01.892Z,7.70
2023-06-21T05:55:28.767Z,8.37
2023-06-21T05:57:55.731Z,7.67
2023-06-21T06:00:22.761Z,7.73
2023-06-21T06:02:49.721Z,7.70
2023-06-21T06:05:17.500Z,7.70
2023-06-21T06:07:44.501Z,6.83
2023-06-21T06:10:11.428Z,7.40
2023-06-21T06:12:38.464Z,8.60
2023-06-21T06:15:06.494Z,7.43
2023-06-21T06:17:33.397Z,6.70
2023-06-21T06:20:05.660Z,6.43
2023-06-21T06:22:36.668Z,6.83
2023-06-21T06:25:04.629Z,7.33
2023-06-21T06:27:31.536Z,7.63
2023-06-21T06:29:59.050Z,6.53
2023-06-21T06:32:28.414Z,5.90
2023-06-21T06:34:55.725Z,6.30
2023-06-21T06:37:30.610Z,5.30
2023-06-21T06:39:59.556Z,5.80
2023-06-21T06:42:26.543Z,5.60
2023-06-21T06:44:54.258Z,5.97
2023-06-21T06:47:21.328Z,5.00
2023-06-21T06:49:48.237Z,6.05
2023-06-21T06:52:15.134Z,6.05
2023-06-21T06:54:42.076Z,6.38
2023-06-21T06:57:15.855Z,6.38
2023-06-21T06:59:50.330Z,5.82
2023-06-21T07:02:17.462Z,6.53
2023-06-21T07:04:44.374Z,5.75
2023-06-21T07:07:11.321Z,6.20
2023-06-21T07:09:39.040Z,5.97
2023-06-21T07:12:06.860Z,5.63
2023-06-21T07:14:33.739Z,6.00
2023-06-21T07:17:00.742Z,5.80
2023-06-21T07:19:27.601Z,5.65
2023-06-21T07:21:54.508Z,6.13
2023-06-21T07:24:21.471Z,6.30
2023-06-21T07:26:48.476Z,5.85
2023-06-21T07:29:15.466Z,5.63
2023-06-21T07:31:42.384Z,5.93
2023-06-21T07:34:10.730Z,5.35
2023-06-21T07:36:39.967Z,5.75
2023-06-21T07:39:09.357Z,5.65
2023-06-21T07:41:36.488Z,5.95
2023-06-21T07:44:03.661Z,6.30
2023-06-21T07:46:30.717Z,5.28
2023-06-21T07:48:57.590Z,6.07
2023-06-21T07:51:24.495Z,5.90
2023-06-21T07:53:51.364Z,5.78
2023-06-21T07:56:18.360Z,6.28
2023-06-21T07:58:45.389Z,6.35
2023-06-21T08:01:13.480Z,6.35
2023-06-21T08:03:41.588Z,6.72
2023-06-21T08:06:08.660Z,7.10
2023-06-21T08:08:35.546Z,6.07
2023-06-21T08:11:02.516Z,7.35
2023-06-21T08:13:30.550Z,6.68
2023-06-21T08:15:57.532Z,7.35
2023-06-21T08:18:24.394Z,6.63
2023-06-21T08:20:51.290Z,7.07
2023-06-21T08:23:18.181Z,6.65
2023-06-21T08:25:46.866Z,7.38
2023-06-21T08:28:13.886Z,7.47
2023-06-21T08:30:40.754Z,6.68
2023-06-21T08:33:07.690Z,7.35
2023-06-21T08:35:34.659Z,6.65
2023-06-21T08:38:11.743Z,6.43
2023-06-21T08:40:48.419Z,6.95
2023-06-21T08:43:15.451Z,7.35
2023-06-21T08:45:42.956Z,6.50
2023-06-21T08:48:10.839Z,7.25
2023-06-21T08:50:39.242Z,6.28
2023-06-21T08:53:08.421Z,6.70
2023-06-21T08:55:37.300Z,7.10
2023-06-21T08:58:17.409Z,6.78
2023-06-21T09:00:52.771Z,7.13
2023-06-21T09:03:29.681Z,6.70
2023-06-21T09:06:04.466Z,6.65
2023-06-21T09:08:35.761Z,6.65
2023-06-21T09:11:03.760Z,7.30
2023-06-21T09:13:35.375Z,6.57
2023-06-21T09:16:04.195Z,6.63
2023-06-21T09:18:37.205Z,6.95
2023-06-21T09:21:05.814Z,7.65
2023-06-21T09:23:32.803Z,7.25
2023-06-21T09:25:59.782Z,7.40
2023-06-21T09:28:26.857Z,7.57
2023-06-21T09:30:53.790Z,7.00
2023-06-21T09:33:20.936Z,6.95
2023-06-21T09:35:47.983Z,7.60
2023-06-21T09:38:29.501Z,6.60
2023-06-21T09:40:56.821Z,6.50
2023-06-21T09:43:24.190Z,6.53
2023-06-21T09:46:13.125Z,7.05
2023-06-21T09:48:41.530Z,6.75
2023-06-21T09:51:12.009Z,6.32
2023-06-21T09:53:42.867Z,7.05
2023-06-21T09:56:10.387Z,6.97
2023-06-21T09:58:41.692Z,7.15
2023-06-21T10:01:09.171Z,6.65
2023-06-21T10:03:36.620Z,6.82
2023-06-21T10:06:04.619Z,6.35
2023-06-21T10:08:37.222Z,6.90
2023-06-21T10:11:04.824Z,5.95
2023-06-21T10:13:38.665Z,6.55
2023-06-21T10:16:06.240Z,6.38
2023-06-21T10:18:35.309Z,7.10
2023-06-21T10:21:04.975Z,6.82
2023-06-21T10:23:35.569Z,6.53
2023-06-21T10:26:06.415Z,6.57
2023-06-21T10:28:38.094Z,6.90
2023-06-21T10:31:05.718Z,6.03
2023-06-21T10:33:35.355Z,6.60
2023-06-21T10:36:04.444Z,6.32
2023-06-21T10:38:49.195Z,6.45
2023-06-21T10:41:16.731Z,7.25
2023-06-21T10:43:45.938Z,7.18
2023-06-21T10:46:13.800Z,6.97
2023-06-21T10:48:41.661Z,6.70
2023-06-21T10:51:11.354Z,6.35
2023-06-21T10:53:39.745Z,6.65
2023-06-21T10:56:06.838Z,6.50
2023-06-21T10:58:33.840Z,6.30
2023-06-21T11:01:01.701Z,6.17
2023-06-21T11:03:29.038Z,6.57
2023-06-21T11:06:40.011Z,6.03
2023-06-21T11:09:13.764Z,5.10
2023-06-21T11:11:53.743Z,5.67
2023-06-21T11:14:31.554Z,5.50
2023-06-21T11:17:16.292Z,5.07
2023-06-21T11:19:48.641Z,5.00
2023-06-21T11:22:18.357Z,4.97
2023-06-21T11:24:58.866Z,5.00
2023-06-21T11:27:26.842Z,4.60
2023-06-21T11:30:04.880Z,4.70
2023-06-21T11:32:31.903Z,4.93
2023-06-21T11:35:01.773Z,4.80
2023-06-21T11:37:46.086Z,5.10
2023-06-21T11:40:16.605Z,5.47
2023-06-21T11:42:46.999Z,5.10
2023-06-21T11:45:21.030Z,5.37
2023-06-21T11:48:09.787Z,5.03
2023-06-21T11:50:42.308Z,5.27
2023-06-21T11:53:31.577Z,5.30
2023-06-21T11:56:03.307Z,5.30
2023-06-21T11:58:30.562Z,5.23
2023-06-21T12:00:58.227Z,4.80
2023-06-21T12:03:28.769Z,4.77
2023-06-21T12:05:58.319Z,5.30
2023-06-21T12:08:28.876Z,4.97
2023-06-21T12:11:08.617Z,5.33
2023-06-21T12:13:37.131Z,5.30
2023-06-21T12:16:06.937Z,4.97
2023-06-21T12:18:37.384Z,4.50
2023-06-21T12:21:08.257Z,5.00
2023-06-21T12:23:35.322Z,4.43
2023-06-21T12:26:07.325Z,4.87
2023-06-21T12:28:35.729Z,4.85
2023-06-21T12:31:04.832Z,5.27
2023-06-21T12:33:37.222Z,4.35
2023-06-21T12:36:25.174Z,4.55
2023-06-21T12:39:04.321Z,4.00
2023-06-21T12:41:33.629Z,4.43
2023-06-21T12:44:27.140Z,4.30
2023-06-21T12:46:55.008Z,4.65
2023-06-21T12:49:21.970Z,4.15
2023-06-21T12:51:49.419Z,4.85
2023-06-21T12:54:20.966Z,4.00
2023-06-21T12:56:59.833Z,4.47
2023-06-21T12:59:28.090Z,3.83
2023-06-21T13:01:57.207Z,3.55
2023-06-21T13:04:24.485Z,3.80
2023-06-21T13:06:51.634Z,4.25
2023-06-21T13:09:18.759Z,4.18
2023-06-21T13:11:46.967Z,4.70
2023-06-21T13:14:13.948Z,4.28
2023-06-21T13:16:40.826Z,4.18
2023-06-21T13:19:08.464Z,4.07
2023-06-21T13:21:35.572Z,4.20
2023-06-21T13:24:04.008Z,3.63
2023-06-21T13:26:31.062Z,4.07
2023-06-21T13:28:58.050Z,3.90
2023-06-21T13:31:25.622Z,4.20
2023-06-21T13:33:54.430Z,3.83
2023-06-21T13:36:21.599Z,4.22
2023-06-21T13:38:48.491Z,4.28
2023-06-21T13:41:15.402Z,4.10
2023-06-21T13:43:42.376Z,4.05
2023-06-21T13:46:09.394Z,4.50
2023-06-21T13:48:36.465Z,3.90
2023-06-21T13:51:03.569Z,3.33
2023-06-21T13:53:30.527Z,4.03
2023-06-21T13:55:58.205Z,4.22
2023-06-21T13:58:26.837Z,3.92
2023-06-21T14:00:53.892Z,3.92
2023-06-21T14:03:20.956Z,3.40
2023-06-21T14:05:47.997Z,2.90
2023-06-21T14:08:14.877Z,3.13
2023-06-21T14:10:41.783Z,3.30
2023-06-21T14:13:08.679Z,3.38
2023-06-21T14:15:35.676Z,3.38
2023-06-21T14:18:04.555Z,3.45
2023-06-21T14:20:32.267Z,2.90
2023-06-21T14:22:59.724Z,3.35
2023-06-21T14:25:26.731Z,3.88
2023-06-21T14:27:53.669Z,4.10
2023-06-21T14:30:21.268Z,3.95
2023-06-21T14:32:48.639Z,3.47
2023-06-21T14:35:15.972Z,3.78
2023-06-21T14:37:45.052Z,3.90
2023-06-21T14:40:12.468Z,3.67
2023-06-21T14:42:39.570Z,3.70
2023-06-21T14:45:07.027Z,3.30
2023-06-21T14:47:33.983Z,3.50
2023-06-21T14:50:04.106Z,3.03
2023-06-21T14:52:32.634Z,3.33
2023-06-21T14:54:59.661Z,3.45
2023-06-21T14:57:26.577Z,3.33
2023-06-21T14:59:53.637Z,2.85
2023-06-21T15:02:20.672Z,3.28
2023-06-21T15:04:47.634Z,3.33
2023-06-21T15:07:19.130Z,3.20
2023-06-21T15:09:47.160Z,3.28
2023-06-21T15:12:14.387Z,3.30
2023-06-21T15:14:41.471Z,2.83
2023-06-21T15:17:08.549Z,3.35
2023-06-21T15:19:35.536Z,3.10
2023-06-21T15:22:02.615Z,3.03
2023-06-21T15:24:29.462Z,3.10
2023-06-21T15:26:56.361Z,3.15
2023-06-21T15:29:23.342Z,3.38
2023-06-21T15:31:50.249Z,3.03
2023-06-21T15:34:17.227Z,2.97
2023-06-21T15:36:45.014Z,3.50
2023-06-21T15:39:12.143Z,3.10
2023-06-21T15:41:39.557Z,3.33
2023-06-21T15:44:06.799Z,2.95
2023-06-21T15:46:34.401Z,2.97
2023-06-21T15:49:01.985Z,3.38
2023-06-21T15:51:29.179Z,3.60
2023-06-21T15:53:57.238Z,2.60
2023-06-21T15:56:26.114Z,3.25
2023-06-21T15:58:53.899Z,3.00
2023-06-21T16:01:22.089Z,3.38
2023-06-21T16:03:50.493Z,3.42
2023-06-21T16:06:19.712Z,3.60
2023-06-21T16:08:47.517Z,3.28
2023-06-21T16:11:15.268Z,3.53
2023-06-21T16:16:14.232Z,3.30
2023-06-21T16:18:41.519Z,3.55
2023-06-21T16:21:08.646Z,3.17
2023-06-21T16:23:35.654Z,3.65
2023-06-21T16:26:02.946Z,3.50
2023-06-21T16:28:29.971Z,3.28
2023-06-21T16:30:56.948Z,3.50
2023-06-21T16:33:23.856Z,2.90
2023-06-21T16:35:50.921Z,2.92
2023-06-21T16:38:19.791Z,3.08
2023-06-21T16:40:47.171Z,3.35
2023-06-21T16:43:14.860Z,3.25
2023-06-21T16:45:41.826Z,3.53
2023-06-21T16:48:08.887Z,3.47
2023-06-21T16:50:35.998Z,3.20
2023-06-21T16:53:03.266Z,3.10
2023-06-21T16:55:30.768Z,4.05
2023-06-21T16:57:58.116Z,3.35
2023-06-21T17:00:25.139Z,3.40
2023-06-21T17:02:54.457Z,3.30
2023-06-21T17:05:25.641Z,3.30
2023-06-21T17:07:53.293Z,3.20
2023-06-21T17:10:22.015Z,3.70
2023-06-21T17:12:49.325Z,2.85
2023-06-21T17:15:16.368Z,3.17
2023-06-21T17:17:44.622Z,3.15
2023-06-21T17:20:12.237Z,2.78
2023-06-21T17:22:39.335Z,3.38
2023-06-21T17:25:07.034Z,3.50
2023-06-21T17:27:34.026Z,3.33
2023-06-21T17:30:01.280Z,3.25
2023-06-21T17:32:28.353Z,3.10
2023-06-21T17:34:55.354Z,2.92
2023-06-21T17:37:22.414Z,3.15
2023-06-21T17:39:49.375Z,3.03
2023-06-21T17:42:16.491Z,3.20
2023-06-21T17:44:43.744Z,3.22
2023-06-21T17:47:11.665Z,3.10
2023-06-21T17:49:38.709Z,3.05
2023-06-21T17:52:06.203Z,3.05
2023-06-21T17:54:33.609Z,3.05
2023-06-21T17:57:00.768Z,3.05
2023-06-21T17:59:27.681Z,3.25
2023-06-21T18:01:55.609Z,3.58
2023-06-21T18:04:22.740Z,2.92
2023-06-21T18:06:49.856Z,3.25
2023-06-21T18:09:16.828Z,3.53
2023-06-21T18:11:44.567Z,3.22
2023-06-21T18:14:11.603Z,3.00
2023-06-21T18:16:40.730Z,3.63
2023-06-21T18:19:07.642Z,3.05
2023-06-21T18:21:34.605Z,3.58
2023-06-21T18:24:13.433Z,2.97
2023-06-21T18:26:40.379Z,3.60
2023-06-21T18:29:07.267Z,2.97
2023-06-21T18:31:34.187Z,3.70
2023-06-21T18:34:01.415Z,3.67
2023-06-21T18:36:28.471Z,4.37
2023-06-21T18:38:56.220Z,3.67
2023-06-21T18:41:23.328Z,3.83
2023-06-21T18:43:50.935Z,3.73
2023-06-21T18:46:17.965Z,3.43
2023-06-21T18:48:50.045Z,3.47
2023-06-21T18:51:17.100Z,3.40
2023-06-21T18:53:44.021Z,3.57
2023-06-21T18:56:10.991Z,3.33
2023-06-21T18:58:38.561Z,3.00
2023-06-21T19:01:05.557Z,3.30
2023-06-21T19:03:32.584Z,3.40
2023-06-21T19:05:59.617Z,3.20
2023-06-21T19:08:26.567Z,3.37
2023-06-21T19:10:53.489Z,3.00
2023-06-21T19:13:20.529Z,3.50
2023-06-21T19:15:47.384Z,3.27
2023-06-21T19:18:14.449Z,3.10
2023-06-21T19:20:41.356Z,3.30
2023-06-21T19:23:08.237Z,3.40
2023-06-21T19:25:35.189Z,3.60
2023-06-21T19:28:02.080Z,3.40
2023-06-21T19:30:29.271Z,3.43
2023-06-21T19:32:56.562Z,3.53
2023-06-21T19:35:23.519Z,3.53
2023-06-21T19:37:50.437Z,3.40
2023-06-21T19:40:17.457Z,3.37
2023-06-21T19:42:47.526Z,3.23
2023-06-21T19:45:15.084Z,3.57
2023-06-21T19:47:42.549Z,3.80
2023-06-21T19:50:10.488Z,3.00
2023-06-21T19:52:37.528Z,3.77
2023-06-21T19:55:04.985Z,3.37
2023-06-21T19:57:32.327Z,3.50
2023-06-21T19:59:59.646Z,3.57
2023-06-21T20:02:26.744Z,3.50
2023-06-21T20:04:57.298Z,3.27
2023-06-21T20:07:24.907Z,3.67
2023-06-21T20:09:53.300Z,3.50
2023-06-21T20:12:20.194Z,3.17
2023-06-21T20:14:47.201Z,3.50
2023-06-21T20:17:14.126Z,4.23
2023-06-21T20:19:41.097Z,3.57
2023-06-21T20:22:08.001Z,3.60
2023-06-21T20:24:34.940Z,4.20
2023-06-21T20:27:01.914Z,3.70
2023-06-21T20:29:28.798Z,4.07
2023-06-21T20:31:55.703Z,3.60
2023-06-21T20:34:23.366Z,3.33
2023-06-21T20:36:50.321Z,4.37
2023-06-21T20:39:18.676Z,4.20
2023-06-21T20:41:47.047Z,4.03
2023-06-21T20:44:16.337Z,4.03
2023-06-21T20:46:45.918Z,3.97
2023-06-21T20:49:13.242Z,3.80
2023-06-21T20:51:40.660Z,4.20
2023-06-21T20:54:12.313Z,3.83
2023-06-21T20:56:40.525Z,3.97
2023-06-21T20:59:07.959Z,4.27
2023-06-21T21:01:39.528Z,3.80
2023-06-21T21:04:08.441Z,4.20
2023-06-21T21:06:36.596Z,4.43
2023-06-21T21:09:04.152Z,4.60
2023-06-21T21:11:31.196Z,4.40
2023-06-21T21:14:01.300Z,4.47
2023-06-21T21:16:28.387Z,4.37
2023-06-21T21:18:55.415Z,5.40
2023-06-21T21:21:22.789Z,5.03
2023-06-21T21:23:51.540Z,4.80
2023-06-21T21:26:18.575Z,4.40
2023-06-21T21:28:45.447Z,4.73
2023-06-21T21:31:12.417Z,4.90
2023-06-21T21:33:39.271Z,4.70
2023-06-21T21:36:06.806Z,5.13
2023-06-21T21:38:33.761Z,4.80
2023-06-21T21:41:00.685Z,5.07
2023-06-21T21:43:27.564Z,4.27
2023-06-21T21:45:54.460Z,5.10
2023-06-21T21:48:21.403Z,5.00
2023-06-21T21:50:48.366Z,5.00
2023-06-21T21:53:15.616Z,4.83
2023-06-21T21:55:43.291Z,4.53
2023-06-21T21:58:11.775Z,5.30
2023-06-21T22:00:38.653Z,5.17
2023-06-21T22:03:05.652Z,5.60
2023-06-21T22:05:32.734Z,5.20
2023-06-21T22:07:59.640Z,5.10
2023-06-21T22:10:37.684Z,4.80
2023-06-21T22:13:05.869Z,4.60
2023-06-21T22:15:32.808Z,5.20
2023-06-21T22:18:01.229Z,5.67
2023-06-21T22:20:30.560Z,5.33
2023-06-21T22:22:57.871Z,4.70
2023-06-21T22:25:24.783Z,5.10
2023-06-21T22:27:51.664Z,5.20
2023-06-21T22:30:18.883Z,5.07
2023-06-21T22:32:45.915Z,5.57
2023-06-21T22:35:12.823Z,5.10
2023-06-21T22:37:39.954Z,5.37
2023-06-21T22:40:08.263Z,5.20
2023-06-21T22:42:35.474Z,5.80
2023-06-21T22:45:02.474Z,4.67
2023-06-21T22:47:29.408Z,5.27
2023-06-21T22:49:56.898Z,4.93
2023-06-21T22:52:24.764Z,5.20
2023-06-21T22:54:51.876Z,4.93
2023-06-21T22:57:18.923Z,4.70
2023-06-21T22:59:46.000Z,5.33
2023-06-21T23:02:13.005Z,5.07
2023-06-21T23:04:40.320Z,5.43
2023-06-21T23:07:07.622Z,4.57
2023-06-21T23:09:34.553Z,4.73
2023-06-21T23:12:01.407Z,4.43
2023-06-21T23:14:29.106Z,4.90
2023-06-21T23:16:56.764Z,5.10
2023-06-21T23:19:24.096Z,4.20
2023-06-21T23:21:52.131Z,5.80
2023-06-21T23:24:19.049Z,4.67
2023-06-21T23:26:49.676Z,4.77
2023-06-21T23:29:16.823Z,4.70
2023-06-21T23:31:43.888Z,4.97
2023-06-21T23:34:12.503Z,5.33
2023-06-21T23:36:41.775Z,4.83
2023-06-21T23:39:09.772Z,5.17
2023-06-21T23:41:37.812Z,5.50
2023-06-21T23:44:06.247Z,5.40
2023-06-21T23:46:34.052Z,5.57
2023-06-21T23:49:03.297Z,5.87
2023-06-21T23:51:34.434Z,5.83
2023-06-21T23:54:01.331Z,5.70
2023-06-21T23:56:28.801Z,5.60
2023-06-21T23:58:55.930Z,5.20
